createdAt,value
2018-08-31T00:00:27.668Z,12.00
2018-08-31T00:03:01.954Z,11.90
2018-08-31T00:05:48.787Z,11.90
2018-08-31T00:08:40.391Z,12.00
2018-08-31T00:12:29.101Z,12.10
2018-08-31T00:15:03.317Z,12.20
2018-08-31T00:17:39.706Z,12.30
2018-08-31T00:20:14.655Z,12.30
2018-08-31T00:22:48.834Z,12.40
2018-08-31T00:26:13.731Z,12.30
2018-08-31T00:29:47.736Z,12.20
2018-08-31T00:33:32.160Z,12.10
2018-08-31T00:38:25.800Z,12.00
2018-08-31T00:42:10.530Z,12.00
2018-08-31T00:44:55.760Z,12.00
2018-08-31T00:47:30.708Z,12.10
2018-08-31T00:50:05.256Z,12.10
2018-08-31T00:52:39.699Z,12.20
2018-08-31T00:55:14.005Z,12.20
2018-08-31T00:57:49.550Z,12.20
2018-08-31T01:00:23.624Z,12.20
2018-08-31T01:02:57.955Z,12.20
2018-08-31T01:05:32.232Z,12.20
2018-08-31T01:08:07.176Z,12.20
2018-08-31T01:10:41.290Z,12.10
2018-08-31T01:13:16.015Z,12.20
2018-08-31T01:15:51.036Z,12.20
2018-08-31T01:18:25.188Z,12.20
2018-08-31T01:21:00.237Z,12.30
2018-08-31T01:23:34.452Z,12.30
2018-08-31T01:26:08.742Z,12.30
2018-08-31T01:28:42.820Z,12.30
2018-08-31T01:31:17.608Z,12.20
2018-08-31T01:33:52.662Z,12.20
2018-08-31T01:36:26.821Z,12.00
2018-08-31T01:39:01.096Z,11.90
2018-08-31T01:41:35.442Z,11.80
2018-08-31T01:44:09.771Z,11.80
2018-08-31T01:46:44.613Z,11.70
2018-08-31T01:49:18.922Z,11.70
2018-08-31T01:51:53.757Z,11.80
2018-08-31T01:54:28.147Z,11.90
2018-08-31T01:57:02.263Z,11.90
2018-08-31T01:59:36.821Z,11.80
2018-08-31T02:02:10.696Z,11.80
2018-08-31T02:04:44.958Z,11.70
2018-08-31T02:07:18.932Z,11.70
2018-08-31T02:09:53.948Z,11.70
2018-08-31T02:12:29.282Z,11.60
2018-08-31T02:15:03.450Z,11.50
2018-08-31T02:17:37.911Z,11.50
2018-08-31T02:20:11.946Z,11.50
2018-08-31T02:22:46.192Z,11.50
2018-08-31T02:25:20.583Z,11.50
2018-08-31T02:27:54.936Z,11.40
2018-08-31T02:30:29.301Z,11.30
2018-08-31T02:33:03.484Z,11.20
2018-08-31T02:35:38.600Z,11.10
2018-08-31T02:38:12.971Z,11.10
2018-08-31T02:40:47.101Z,11.10
2018-08-31T02:43:22.162Z,11.10
2018-08-31T02:45:56.297Z,11.10
2018-08-31T02:48:31.278Z,11.20
2018-08-31T02:51:05.396Z,11.30
2018-08-31T02:53:40.068Z,11.30
2018-08-31T02:56:14.622Z,11.30
2018-08-31T02:58:48.721Z,11.30
2018-08-31T03:01:22.981Z,11.40
2018-08-31T03:03:57.923Z,11.40
2018-08-31T03:06:32.627Z,11.50
2018-08-31T03:09:07.162Z,11.40
2018-08-31T03:11:42.108Z,11.40
2018-08-31T03:14:16.242Z,11.30
2018-08-31T03:16:50.361Z,11.40
2018-08-31T03:19:24.938Z,11.50
2018-08-31T03:22:00.094Z,11.50
2018-08-31T03:24:36.621Z,11.60
2018-08-31T03:27:11.026Z,11.60
2018-08-31T03:29:45.403Z,11.70
2018-08-31T03:32:19.922Z,11.80
2018-08-31T03:34:54.277Z,11.80
2018-08-31T03:37:29.109Z,11.90
2018-08-31T03:40:03.386Z,12.00
2018-08-31T03:42:37.532Z,12.00
2018-08-31T03:45:12.190Z,12.10
2018-08-31T03:47:46.533Z,12.20
2018-08-31T03:50:21.616Z,12.20
2018-08-31T03:52:55.560Z,12.20
2018-08-31T03:55:29.880Z,12.10
2018-08-31T03:58:04.929Z,12.10
2018-08-31T04:00:39.439Z,12.10
2018-08-31T04:03:13.956Z,12.10
2018-08-31T04:05:48.885Z,12.00
2018-08-31T04:08:24.185Z,12.00
2018-08-31T04:10:58.211Z,12.00
2018-08-31T04:13:32.345Z,12.00
2018-08-31T04:16:07.004Z,12.00
2018-08-31T04:18:41.247Z,12.00
2018-08-31T04:21:15.994Z,12.00
2018-08-31T04:23:50.568Z,12.10
2018-08-31T04:26:24.942Z,12.10
2018-08-31T04:28:59.953Z,12.10
2018-08-31T04:31:34.185Z,12.20
2018-08-31T04:34:09.537Z,12.20
2018-08-31T04:36:44.006Z,12.30
2018-08-31T04:39:18.136Z,12.30
2018-08-31T04:41:52.632Z,12.40
2018-08-31T04:44:27.393Z,12.40
2018-08-31T04:47:02.291Z,12.40
2018-08-31T04:49:36.167Z,12.40
2018-08-31T04:52:10.196Z,12.40
2018-08-31T04:54:44.256Z,12.40
2018-08-31T04:57:18.518Z,12.40
2018-08-31T04:59:52.803Z,12.40
2018-08-31T05:02:27.184Z,12.40
2018-08-31T05:05:02.050Z,12.40
2018-08-31T05:07:38.133Z,12.40
2018-08-31T05:10:12.182Z,12.40
2018-08-31T05:12:46.352Z,12.40
2018-08-31T05:15:20.313Z,12.40
2018-08-31T05:17:54.517Z,12.40
2018-08-31T05:20:28.649Z,12.30
2018-08-31T05:23:03.034Z,12.40
2018-08-31T05:25:37.067Z,12.40
2018-08-31T05:28:11.196Z,12.40
2018-08-31T05:30:46.181Z,12.40
2018-08-31T05:33:20.763Z,12.40
2018-08-31T05:35:55.047Z,12.40
2018-08-31T05:38:29.246Z,12.40
2018-08-31T05:41:03.726Z,12.40
2018-08-31T05:43:37.998Z,12.40
2018-08-31T05:46:12.156Z,12.50
2018-08-31T05:48:46.566Z,12.40
2018-08-31T05:51:21.750Z,12.40
2018-08-31T05:53:56.095Z,12.40
2018-08-31T05:56:30.236Z,12.40
2018-08-31T05:59:04.222Z,12.40
2018-08-31T06:01:38.697Z,12.50
2018-08-31T06:04:13.521Z,12.50
2018-08-31T06:06:48.282Z,12.50
2018-08-31T06:09:23.462Z,12.60
2018-08-31T06:11:58.689Z,12.60
2018-08-31T06:14:32.545Z,12.60
2018-08-31T06:17:06.953Z,12.60
2018-08-31T06:19:40.887Z,12.50
2018-08-31T06:22:14.910Z,12.50
2018-08-31T06:24:49.336Z,12.60
2018-08-31T06:27:23.655Z,12.50
2018-08-31T06:29:57.733Z,12.60
2018-08-31T06:32:31.880Z,12.50
2018-08-31T06:35:06.969Z,12.50
2018-08-31T06:37:41.930Z,12.60
2018-08-31T06:40:16.657Z,12.60
2018-08-31T06:42:50.678Z,12.70
2018-08-31T06:45:25.460Z,12.70
2018-08-31T06:48:00.414Z,12.50
2018-08-31T06:50:35.426Z,12.40
2018-08-31T06:53:09.808Z,12.50
2018-08-31T06:55:44.477Z,12.40
2018-08-31T06:58:18.716Z,12.40
2018-08-31T07:00:52.997Z,12.50
2018-08-31T07:03:27.347Z,12.50
2018-08-31T07:06:02.378Z,12.60
2018-08-31T07:08:36.787Z,12.70
2018-08-31T07:11:11.551Z,12.70
2018-08-31T07:13:45.941Z,12.80
2018-08-31T07:16:20.211Z,12.80
2018-08-31T07:18:54.662Z,12.80
2018-08-31T07:21:28.841Z,12.90
2018-08-31T07:24:02.930Z,13.00
2018-08-31T07:26:37.627Z,13.00
2018-08-31T07:29:11.347Z,13.10
2018-08-31T07:31:46.487Z,13.20
2018-08-31T07:34:20.787Z,13.20
2018-08-31T07:36:55.375Z,13.20
2018-08-31T07:39:29.453Z,13.30
2018-08-31T07:42:03.604Z,13.30
2018-08-31T07:44:37.857Z,13.30
2018-08-31T07:47:12.020Z,13.30
2018-08-31T07:49:46.777Z,13.30
2018-08-31T07:52:20.896Z,13.50
2018-08-31T07:54:55.162Z,13.50
2018-08-31T07:57:29.731Z,13.60
2018-08-31T08:00:05.103Z,13.70
2018-08-31T08:02:39.464Z,13.80
2018-08-31T08:05:14.217Z,13.90
2018-08-31T08:07:49.318Z,13.90
2018-08-31T08:10:23.467Z,14.00
2018-08-31T08:12:57.522Z,14.10
2018-08-31T08:15:31.806Z,14.10
2018-08-31T08:18:06.107Z,14.00
2018-08-31T08:20:40.588Z,14.00
2018-08-31T08:23:15.537Z,14.10
2018-08-31T08:25:49.786Z,14.10
2018-08-31T08:28:24.200Z,14.30
2018-08-31T08:30:58.877Z,14.30
2018-08-31T08:33:33.253Z,14.30
2018-08-31T08:36:08.168Z,14.40
2018-08-31T08:38:42.203Z,14.40
2018-08-31T08:41:16.174Z,14.40
2018-08-31T08:43:50.843Z,14.50
2018-08-31T08:46:25.023Z,14.60
2018-08-31T08:48:59.175Z,14.70
2018-08-31T08:51:33.878Z,14.80
2018-08-31T08:54:08.329Z,14.90
2018-08-31T08:56:42.752Z,14.90
2018-08-31T08:59:17.216Z,15.00
2018-08-31T09:01:51.616Z,14.90
2018-08-31T09:04:25.742Z,14.80
2018-08-31T09:06:59.734Z,14.70
2018-08-31T09:09:33.916Z,14.80
2018-08-31T09:12:08.382Z,14.80
2018-08-31T09:14:43.026Z,14.80
2018-08-31T09:17:17.511Z,15.00
2018-08-31T09:19:51.691Z,15.10
2018-08-31T09:22:26.351Z,15.20
2018-08-31T09:25:00.526Z,15.20
2018-08-31T09:27:35.202Z,15.30
2018-08-31T09:30:14.422Z,15.50
2018-08-31T09:32:49.227Z,15.50
2018-08-31T09:35:23.454Z,15.50
2018-08-31T09:37:58.412Z,15.60
2018-08-31T09:40:32.597Z,15.60
2018-08-31T09:43:07.279Z,15.60
2018-08-31T09:45:42.593Z,15.70
2018-08-31T09:48:16.822Z,15.80
2018-08-31T09:50:51.932Z,16.10
2018-08-31T09:53:26.022Z,16.40
2018-08-31T09:56:00.319Z,16.50
2018-08-31T09:58:34.877Z,16.80
2018-08-31T10:01:15.044Z,17.10
2018-08-31T10:03:49.231Z,17.20
2018-08-31T10:06:23.572Z,17.30
2018-08-31T10:08:58.323Z,17.30
2018-08-31T10:11:32.411Z,17.30
2018-08-31T10:14:07.460Z,17.20
2018-08-31T10:16:41.783Z,17.00
2018-08-31T10:19:15.983Z,16.90
2018-08-31T10:21:51.173Z,17.10
2018-08-31T10:24:25.482Z,17.20
2018-08-31T10:26:59.784Z,17.30
2018-08-31T10:29:34.059Z,17.60
2018-08-31T10:32:08.728Z,17.60
2018-08-31T10:34:43.773Z,17.70
2018-08-31T10:37:19.531Z,17.90
2018-08-31T10:39:54.448Z,18.10
2018-08-31T10:42:29.151Z,18.00
2018-08-31T10:45:03.599Z,18.00
2018-08-31T10:47:38.225Z,18.00
2018-08-31T10:50:12.653Z,18.00
2018-08-31T10:52:46.753Z,18.20
2018-08-31T10:55:20.973Z,18.30
2018-08-31T10:57:54.972Z,18.40
2018-08-31T11:00:30.283Z,18.20
2018-08-31T11:03:04.703Z,18.30
2018-08-31T11:05:39.311Z,18.10
2018-08-31T11:08:13.962Z,18.20
2018-08-31T11:10:47.990Z,18.40
2018-08-31T11:13:22.444Z,18.50
2018-08-31T11:15:57.591Z,18.70
2018-08-31T11:18:32.261Z,18.70
2018-08-31T11:21:06.843Z,18.70
2018-08-31T11:23:41.217Z,18.80
2018-08-31T11:26:15.645Z,18.80
2018-08-31T11:28:50.694Z,18.80
2018-08-31T11:31:25.248Z,18.90
2018-08-31T11:34:00.134Z,18.80
2018-08-31T11:36:34.398Z,18.60
2018-08-31T11:39:09.978Z,18.30
2018-08-31T11:41:44.087Z,18.30
2018-08-31T11:44:19.148Z,18.30
2018-08-31T11:46:54.229Z,18.40
2018-08-31T11:49:28.356Z,18.60
2018-08-31T11:52:02.874Z,18.80
2018-08-31T11:54:37.752Z,18.90
2018-08-31T11:57:11.876Z,19.10
2018-08-31T11:59:46.652Z,19.30
2018-08-31T12:02:21.208Z,19.60
2018-08-31T12:04:56.339Z,19.80
2018-08-31T12:07:30.636Z,19.80
2018-08-31T12:10:05.358Z,19.90
2018-08-31T12:12:40.147Z,19.90
2018-08-31T12:15:14.548Z,19.80
2018-08-31T12:17:48.692Z,19.80
2018-08-31T12:20:22.883Z,19.80
2018-08-31T12:22:57.392Z,19.60
2018-08-31T12:25:31.635Z,19.60
2018-08-31T12:28:05.609Z,19.40
2018-08-31T12:30:40.044Z,19.30
2018-08-31T12:33:14.937Z,19.20
2018-08-31T12:35:49.320Z,19.10
2018-08-31T12:38:24.006Z,19.00
2018-08-31T12:40:58.415Z,19.10
2018-08-31T12:43:33.147Z,19.20
2018-08-31T12:46:07.456Z,19.30
2018-08-31T12:48:41.737Z,19.40
2018-08-31T12:51:16.927Z,19.40
2018-08-31T12:53:51.207Z,19.30
2018-08-31T12:56:25.341Z,19.30
2018-08-31T12:58:59.755Z,19.30
2018-08-31T13:01:34.219Z,19.50
2018-08-31T13:04:09.309Z,19.70
2018-08-31T13:06:43.745Z,20.00
2018-08-31T13:09:17.692Z,19.90
2018-08-31T13:11:52.231Z,20.00
2018-08-31T13:14:26.288Z,20.10
2018-08-31T13:17:01.420Z,20.20
2018-08-31T13:19:35.632Z,20.60
2018-08-31T13:22:10.513Z,20.80
2018-08-31T13:24:45.822Z,21.10
2018-08-31T13:27:19.775Z,21.60
2018-08-31T13:29:55.099Z,22.00
2018-08-31T13:32:29.163Z,22.40
2018-08-31T13:35:03.751Z,22.60
2018-08-31T13:37:38.416Z,22.90
2018-08-31T13:40:12.613Z,22.50
2018-08-31T13:42:46.714Z,22.20
2018-08-31T13:45:20.992Z,22.10
2018-08-31T13:47:55.394Z,21.80
2018-08-31T13:50:30.078Z,21.30
2018-08-31T13:53:04.654Z,21.30
2018-08-31T13:55:39.649Z,21.30
2018-08-31T13:58:14.099Z,21.20
2018-08-31T14:00:48.947Z,21.10
2018-08-31T14:03:23.262Z,20.90
2018-08-31T14:05:57.468Z,20.70
2018-08-31T14:08:31.665Z,20.30
2018-08-31T14:11:06.197Z,20.30
2018-08-31T14:13:40.809Z,20.20
2018-08-31T14:16:15.024Z,20.20
2018-08-31T14:18:51.052Z,20.30
2018-08-31T14:21:25.707Z,20.40
2018-08-31T14:24:00.082Z,20.40
2018-08-31T14:26:34.941Z,20.30
2018-08-31T14:29:09.309Z,20.50
2018-08-31T14:31:43.758Z,20.60
2018-08-31T14:34:18.114Z,20.80
2018-08-31T14:36:53.627Z,20.90
2018-08-31T14:39:28.231Z,20.80
2018-08-31T14:42:02.577Z,20.60
2018-08-31T14:44:36.958Z,20.40
2018-08-31T14:47:11.699Z,20.50
2018-08-31T14:49:46.433Z,20.80
2018-08-31T14:52:20.553Z,21.20
2018-08-31T14:54:55.263Z,21.40
2018-08-31T14:57:29.736Z,21.60
2018-08-31T15:00:05.244Z,21.70
2018-08-31T15:02:40.226Z,21.80
2018-08-31T15:05:14.751Z,21.90
2018-08-31T15:07:49.049Z,22.10
2018-08-31T15:10:23.172Z,21.90
2018-08-31T15:12:57.717Z,21.80
2018-08-31T15:15:32.102Z,22.00
2018-08-31T15:18:06.774Z,22.10
2018-08-31T15:20:41.212Z,22.20
2018-08-31T15:23:16.047Z,22.50
2018-08-31T15:25:50.356Z,22.30
2018-08-31T15:28:25.389Z,22.20
2018-08-31T15:31:00.290Z,22.20
2018-08-31T15:33:34.434Z,22.00
2018-08-31T15:36:09.023Z,22.20
2018-08-31T15:38:43.110Z,22.40
2018-08-31T15:41:17.573Z,22.20
2018-08-31T15:43:52.428Z,22.10
2018-08-31T15:46:26.812Z,22.00
2018-08-31T15:49:07.411Z,21.90
2018-08-31T15:51:41.593Z,21.70
2018-08-31T15:54:15.910Z,21.60
2018-08-31T15:56:50.317Z,21.70
2018-08-31T15:59:24.987Z,21.60
2018-08-31T16:01:59.427Z,21.50
2018-08-31T16:04:34.217Z,21.70
2018-08-31T16:10:12.366Z,21.60
2018-08-31T16:12:52.034Z,21.80
2018-08-31T16:15:30.342Z,22.00
2018-08-31T16:18:04.843Z,22.30
2018-08-31T16:20:40.409Z,22.40
2018-08-31T16:23:15.907Z,22.50
2018-08-31T16:25:50.933Z,22.60
2018-08-31T16:28:25.483Z,22.70
2018-08-31T16:30:59.923Z,22.50
2018-08-31T16:33:34.570Z,22.20
2018-08-31T16:36:09.347Z,21.80
2018-08-31T16:38:43.586Z,21.60
2018-08-31T16:41:24.676Z,21.40
2018-08-31T16:43:59.276Z,20.70
2018-08-31T16:46:33.743Z,20.60
2018-08-31T16:49:08.187Z,20.40
2018-08-31T16:51:43.573Z,20.20
2018-08-31T16:54:24.375Z,19.70
2018-08-31T16:56:59.817Z,19.60
2018-08-31T16:59:34.346Z,19.60
2018-08-31T17:02:08.773Z,19.40
2018-08-31T17:04:42.935Z,19.30
2018-08-31T17:07:17.909Z,19.20
2018-08-31T17:09:52.725Z,19.10
2018-08-31T17:12:27.186Z,19.00
2018-08-31T17:15:01.639Z,18.90
2018-08-31T17:17:36.215Z,18.80
2018-08-31T17:20:10.353Z,18.60
2018-08-31T17:22:44.543Z,18.50
2018-08-31T17:25:18.773Z,18.40
2018-08-31T17:27:58.640Z,18.30
2018-08-31T17:30:33.011Z,18.20
2018-08-31T17:33:13.005Z,18.10
2018-08-31T17:35:52.567Z,17.90
2018-08-31T17:38:27.223Z,17.80
2018-08-31T17:41:01.485Z,17.70
2018-08-31T17:43:35.916Z,17.50
2018-08-31T17:46:11.063Z,17.50
2018-08-31T17:48:50.817Z,17.30
2018-08-31T17:51:25.453Z,17.30
2018-08-31T17:53:59.718Z,17.20
2018-08-31T17:56:34.093Z,17.10
2018-08-31T17:59:08.559Z,17.00
2018-08-31T18:01:43.491Z,16.90
2018-08-31T18:04:17.987Z,16.80
2018-08-31T18:06:51.950Z,16.70
2018-08-31T18:09:26.555Z,16.60
2018-08-31T18:12:00.868Z,16.60
2018-08-31T18:14:35.728Z,16.40
2018-08-31T18:17:10.731Z,16.30
2018-08-31T18:19:45.800Z,16.20
2018-08-31T18:22:20.702Z,16.10
2018-08-31T18:24:55.661Z,16.10
2018-08-31T18:27:30.509Z,16.00
2018-08-31T18:30:04.917Z,15.90
2018-08-31T18:32:40.892Z,15.80
2018-08-31T18:35:14.717Z,15.80
2018-08-31T18:37:49.093Z,15.80
2018-08-31T18:40:23.483Z,15.70
2018-08-31T18:42:59.566Z,15.60
2018-08-31T18:45:34.645Z,15.60
2018-08-31T18:48:09.413Z,15.50
2018-08-31T18:50:44.188Z,15.40
2018-08-31T18:53:18.648Z,15.40
2018-08-31T18:55:52.747Z,15.40
2018-08-31T18:58:27.768Z,15.40
2018-08-31T19:01:02.577Z,15.40
2018-08-31T19:03:36.891Z,15.40
2018-08-31T19:06:11.570Z,15.30
2018-08-31T19:08:45.611Z,15.30
2018-08-31T19:11:20.031Z,15.20
2018-08-31T19:13:53.840Z,15.20
2018-08-31T19:16:27.949Z,15.20
2018-08-31T19:19:02.353Z,15.10
2018-08-31T19:21:36.935Z,15.00
2018-08-31T19:24:11.961Z,14.90
2018-08-31T19:26:46.947Z,14.80
2018-08-31T19:29:21.328Z,14.80
2018-08-31T19:31:55.443Z,14.70
2018-08-31T19:34:29.726Z,14.70
2018-08-31T19:37:04.537Z,14.70
2018-08-31T19:39:39.302Z,14.60
2018-08-31T19:42:13.650Z,14.60
2018-08-31T19:44:47.935Z,14.60
2018-08-31T19:47:22.052Z,14.60
2018-08-31T19:49:56.423Z,14.50
2018-08-31T19:52:31.359Z,14.30
2018-08-31T19:55:05.705Z,14.20
2018-08-31T19:57:40.112Z,14.20
2018-08-31T20:00:14.508Z,14.20
2018-08-31T20:02:48.746Z,14.20
2018-08-31T20:05:23.679Z,14.30
2018-08-31T20:07:57.989Z,14.30
2018-08-31T20:10:32.569Z,14.40
2018-08-31T20:13:07.036Z,14.40
2018-08-31T20:15:41.248Z,14.40
2018-08-31T20:18:15.908Z,14.30
2018-08-31T20:20:50.068Z,14.30
2018-08-31T20:23:24.640Z,14.10
2018-08-31T20:25:59.498Z,14.00
2018-08-31T20:28:33.867Z,14.00
2018-08-31T20:31:08.429Z,13.90
2018-08-31T20:33:42.829Z,13.80
2018-08-31T20:36:17.126Z,13.70
2018-08-31T20:38:51.587Z,13.60
2018-08-31T20:41:26.017Z,13.60
2018-08-31T20:44:00.383Z,13.60
2018-08-31T20:46:34.899Z,13.60
2018-08-31T20:49:10.134Z,13.50
2018-08-31T20:51:45.176Z,13.50
2018-08-31T20:54:20.146Z,13.50
2018-08-31T20:56:54.557Z,13.40
2018-08-31T20:59:28.768Z,13.30
2018-08-31T21:02:03.875Z,13.30
2018-08-31T21:04:38.113Z,13.20
2018-08-31T21:07:12.473Z,13.10
2018-08-31T21:09:47.698Z,13.20
2018-08-31T21:12:22.024Z,13.20
2018-08-31T21:14:56.847Z,13.20
2018-08-31T21:17:31.482Z,13.20
2018-08-31T21:20:05.876Z,13.20
2018-08-31T21:22:40.176Z,13.20
2018-08-31T21:25:15.063Z,13.10
2018-08-31T21:27:50.289Z,13.20
2018-08-31T21:30:25.263Z,13.10
2018-08-31T21:32:59.669Z,13.10
2018-08-31T21:35:34.115Z,13.10
2018-08-31T21:38:08.965Z,13.00
2018-08-31T21:40:43.620Z,12.90
2018-08-31T21:43:18.392Z,12.90
2018-08-31T21:45:52.828Z,12.80
2018-08-31T21:48:27.046Z,12.70
2018-08-31T21:51:01.261Z,12.70
2018-08-31T21:53:36.088Z,12.60
2018-08-31T21:56:10.501Z,12.60
2018-08-31T21:58:45.132Z,12.50
2018-08-31T22:01:25.102Z,12.50
2018-08-31T22:03:59.898Z,12.50
2018-08-31T22:06:35.323Z,12.50
2018-08-31T22:09:10.107Z,12.50
2018-08-31T22:11:44.497Z,12.60
2018-08-31T22:14:19.057Z,12.70
2018-08-31T22:16:53.725Z,12.60
2018-08-31T22:19:28.055Z,12.60
2018-08-31T22:22:02.236Z,12.50
2018-08-31T22:24:37.077Z,12.40
2018-08-31T22:27:11.540Z,12.40
2018-08-31T22:29:45.619Z,12.30
2018-08-31T22:32:20.652Z,12.20
2018-08-31T22:34:55.551Z,12.20
2018-08-31T22:37:30.311Z,12.20
2018-08-31T22:40:04.475Z,12.20
2018-08-31T22:42:38.538Z,12.20
2018-08-31T22:45:14.652Z,12.20
2018-08-31T22:47:48.771Z,12.10
2018-08-31T22:50:22.900Z,12.00
2018-08-31T22:52:57.135Z,12.00
2018-08-31T22:55:31.331Z,12.00
2018-08-31T22:58:05.364Z,11.90
2018-08-31T23:00:39.657Z,11.90
2018-08-31T23:03:14.692Z,11.90
2018-08-31T23:05:49.059Z,11.90
2018-08-31T23:08:23.117Z,11.80
2018-08-31T23:10:57.861Z,11.80
2018-08-31T23:13:32.111Z,11.70
2018-08-31T23:16:06.661Z,11.60
2018-08-31T23:18:40.861Z,11.70
2018-08-31T23:21:15.290Z,11.70
2018-08-31T23:23:49.562Z,11.50
2018-08-31T23:26:25.269Z,11.50
2018-08-31T23:28:59.320Z,11.50
2018-08-31T23:31:33.480Z,11.60
2018-08-31T23:34:07.699Z,11.50
2018-08-31T23:36:41.810Z,11.50
2018-08-31T23:39:16.526Z,11.50
2018-08-31T23:41:51.615Z,11.50
2018-08-31T23:44:26.090Z,11.40
2018-08-31T23:47:00.321Z,11.30
2018-08-31T23:49:35.202Z,11.20
2018-08-31T23:52:10.088Z,11.20
2018-08-31T23:54:44.105Z,11.30
2018-08-31T23:57:19.311Z,11.20
2018-08-31T23:59:53.818Z,11.30
